Star Pride — 9V9351 — position and weather

sailwx.info

Track history (hours):
 
Tides and Currents Weather Stations Pressure Air Temp Water Temp Dewpoint Dewpoint Depression Visibility Wind Speed Wind Dir Waves Ship Positions

Star Pride

Last reported at 2017-Nov-16 16:04 UTC. Time now 2017-Nov-21 02:54 UTC.
Position N 30°47' W 116°59'.

Length 163 m; draft 7.8 m.

Type: Cargo ship. MMSI: 566090000.

Date/timePositionNaut miles runAvg speedWind from/ knotsBaromVisibWave heightAir tempDewpointWater temp
2017-Nov-16 16:04N 30°47' W 116°59'121.1
2017-Nov-16 16:00N 30°48' W 116°59'1020.7
2017-Nov-16 15:31N 30°58' W 117°03'1020.8
2017-Nov-16 15:01N 31°08' W 117°08'1421.0
2017-Nov-16 14:21N 31°21' W 117°14'1121.4
2017-Nov-16 13:50N 31°31' W 117°18'721.1
2017-Nov-16 13:30N 31°38' W 117°20'1121.1
2017-Nov-16 12:59N 31°48' W 117°25'1021.1
2017-Nov-16 12:30N 31°57' W 117°30'1020.9
2017-Nov-16 12:01N 32°07' W 117°35'1020.5
2017-Nov-16 11:30N 32°16' W 117°39'1019.8
2017-Nov-16 11:01N 32°25' W 117°43'918.0
2017-Nov-16 10:31N 32°34' W 117°47'917.7
2017-Nov-16 10:01N 32°42' W 117°51'918.5
2017-Nov-16 09:30N 32°50' W 117°56'1020.4
2017-Nov-16 09:01N 32°60' W 118°01'1020.3
2017-Nov-16 08:31N 33°10' W 118°02'1019.8
2017-Nov-16 08:01N 33°19' W 118°06'918.6
2017-Nov-16 07:30N 33°28' W 118°10'815.2
2017-Nov-16 07:00N 33°35' W 118°13'510.6
2017-Nov-16 06:29N 33°40' W 118°11'4 7.5
2017-Nov-16 06:00N 33°44' W 118°13'1 0.3
2017-Nov-16 04:07N 33°44' W 118°14'0 0.0
2017-Nov-16 03:55N 33°44' W 118°14'0 0.0
2017-Nov-16 03:25N 33°44' W 118°14'0 0.1
2017-Nov-16 02:58N 33°44' W 118°14'0 0.0
2017-Nov-16 00:19N 33°44' W 118°14'0 0.0
2017-Nov-15 23:55N 33°44' W 118°14'0 0.0
2017-Nov-15 23:19N 33°44' W 118°14'0 0.1
2017-Nov-15 22:58N 33°44' W 118°14'0 0.0
2017-Nov-15 22:25N 33°44' W 118°14'0 0.0
2017-Nov-15 21:55N 33°44' W 118°14'0 0.1
2017-Nov-15 21:25N 33°44' W 118°14'0 0.1
2017-Nov-15 20:58N 33°44' W 118°14'0 0.0
2017-Nov-15 20:28N 33°44' W 118°14'0 0.2
2017-Nov-15 19:42N 33°44' W 118°14'1 3.5
2017-Nov-15 19:30N 33°44' W 118°13'4 7.8
2017-Nov-15 19:00N 33°40' W 118°11'4 8.7
2017-Nov-15 18:30N 33°37' W 118°15'611.0
2017-Nov-15 18:00N 33°36' W 118°21'713.8
2017-Nov-15 17:30N 33°40' W 118°28'713.7
2017-Nov-15 16:59N 33°43' W 118°36'713.5
2017-Nov-15 16:29N 33°47' W 118°43'713.3
2017-Nov-15 16:00N 33°50' W 118°50'713.2
2017-Nov-15 15:29N 33°53' W 118°57'613.3
2017-Nov-15 15:00N 33°56' W 119°04'713.5
2017-Nov-15 14:30N 34°00' W 119°11'612.8
2017-Nov-15 14:00N 34°06' W 119°14'3 4.9
2017-Nov-15 13:19N 34°09' W 119°12'0 0.0
2017-Nov-15 12:10N 34°09' W 119°12'0 0.1
2017-Nov-15 11:31N 34°09' W 119°12'0 1.0
2017-Nov-15 11:28N 34°09' W 119°12'0 0.0
2017-Nov-15 10:55N 34°09' W 119°12'0 0.0
2017-Nov-15 10:22N 34°09' W 119°12'0 0.0
2017-Nov-15 09:52N 34°09' W 119°12'0 0.0
2017-Nov-15 07:52N 34°09' W 119°12'0 0.0
2017-Nov-15 06:49N 34°09' W 119°12'0 0.1
2017-Nov-15 06:19N 34°09' W 119°12'0 0.0
2017-Nov-15 04:49N 34°09' W 119°12'0 0.0
2017-Nov-15 02:13N 34°09' W 119°12'0 0.0
2017-Nov-14 22:55N 34°09' W 119°12'0 0.0
2017-Nov-14 22:28N 34°09' W 119°12'0 0.0
2017-Nov-14 21:55N 34°09' W 119°12'0 0.0
2017-Nov-14 21:25N 34°09' W 119°12'0 0.0
2017-Nov-14 20:55N 34°09' W 119°12'0 0.0
2017-Nov-14 18:31N 34°09' W 119°12'0 0.0
2017-Nov-14 15:49N 34°09' W 119°12'0 0.0
2017-Nov-14 12:43N 34°09' W 119°12'0 0.0
2017-Nov-14 12:25N 34°09' W 119°12'0 0.0
2017-Nov-14 11:16N 34°09' W 119°12'0 0.0
2017-Nov-14 10:55N 34°09' W 119°12'0 0.0
2017-Nov-14 10:07N 34°09' W 119°12'0 0.0
2017-Nov-14 08:37N 34°09' W 119°12'0 0.0
2017-Nov-14 08:25N 34°09' W 119°12'0 0.0
2017-Nov-14 06:31N 34°09' W 119°12'0 0.0
2017-Nov-14 05:01N 34°09' W 119°12'0 0.0
2017-Nov-14 04:56N 34°09' W 119°12'0 0.0
2017-Nov-14 04:13N 34°09' W 119°12'0 0.0
2017-Nov-14 03:55N 34°09' W 119°12'0 0.0
2017-Nov-14 03:25N 34°09' W 119°12'0 0.0
2017-Nov-14 01:25N 34°09' W 119°12'0 0.0
2017-Nov-14 00:58N 34°09' W 119°12'0 0.0
2017-Nov-14 00:26N 34°09' W 119°12'0 0.0
2017-Nov-13 23:58N 34°09' W 119°12'0 0.0
2017-Nov-13 23:28N 34°09' W 119°12'0 0.0
2017-Nov-13 22:40N 34°09' W 119°12'0 0.0
2017-Nov-13 22:25N 34°09' W 119°12'2 0.1
2017-Nov-13 01:58N 34°07' W 119°14'5 9.6
2017-Nov-13 01:28N 34°03' W 119°13'510.2
2017-Nov-13 01:00N 33°58' W 119°11'815.3
2017-Nov-13 00:29N 33°52' W 119°05'918.7
2017-Nov-13 00:01N 33°44' W 118°59'918.7
2017-Nov-12 23:31N 33°37' W 118°53'918.5
2017-Nov-12 23:01N 33°29' W 118°46'918.5
2017-Nov-12 22:30N 33°22' W 118°40'918.6
2017-Nov-12 22:00N 33°14' W 118°33'918.4
2017-Nov-12 21:30N 33°07' W 118°26'918.6
2017-Nov-12 21:01N 32°60' W 118°20'918.5
2017-Nov-12 20:31N 32°52' W 118°13'918.2
2017-Nov-12 20:01N 32°45' W 118°07'918.5
2017-Nov-12 19:31N 32°38' W 117°60'918.7
2017-Nov-12 19:00N 32°30' W 117°54'1018.9
2017-Nov-12 18:30N 32°21' W 117°49'918.5
2017-Nov-12 18:00N 32°13' W 117°45'1018.2
2017-Nov-12 17:27N 32°03' W 117°40'818.0
2017-Nov-12 16:59N 31°56' W 117°36'917.7
2017-Nov-12 16:30N 31°48' W 117°33'817.0
2017-Nov-12 16:00N 31°40' W 117°29'815.8
2017-Nov-12 15:31N 31°33' W 117°25'917.5
2017-Nov-12 15:00N 31°25' W 117°21'917.9
2017-Nov-12 14:30N 31°16' W 117°17'1018.0
2017-Nov-12 13:57N 31°07' W 117°13'818.5
2017-Nov-12 13:30N 30°59' W 117°09'1217.8
2017-Nov-12 12:51N 30°49' W 117°04'411.1
2017-Nov-12 12:27N 30°45' W 117°02'916.2
2017-Nov-12 11:55N 30°37' W 116°58'3517.9
2017-Nov-12 09:58N 30°04' W 116°43'1017.9
2017-Nov-12 09:25N 29°55' W 116°38'818.4
2017-Nov-12 09:00N 29°48' W 116°35'918.3
2017-Nov-12 08:30N 29°40' W 116°31'2318.1
2017-Nov-12 07:15N 29°19' W 116°21'518.4
2017-Nov-12 06:58N 29°14' W 116°18'1618.2
2017-Nov-12 06:04N 28°59' W 116°11'118.2
2017-Nov-12 06:00N 28°58' W 116°11'917.8
2017-Nov-12 05:30N 28°50' W 116°07'7717.5
2017-Nov-12 01:06N 27°42' W 115°24'217.4
2017-Nov-12 01:00N 27°41' W 115°23'1318.0
2017-Nov-12 00:15N 27°30' W 115°14'717.7
2017-Nov-11 23:52N 27°24' W 115°10'  
Track history (hours):
 
Tides and Currents Weather Stations Pressure Air Temp Water Temp Dewpoint Dewpoint Depression Visibility Wind Speed Wind Dir Waves Ship Positions

Star Pride

Last reported at 2017-Nov-16 16:04 UTC. Time now 2017-Nov-21 02:54 UTC.
Position N 30°47' W 116°59'.

Length 163 m; draft 7.8 m.

Type: Cargo ship. MMSI: 566090000.

Date/timePositionNaut miles runAvg speedWind from/ knotsBaromVisibWave heightAir tempDewpointWater temp
2017-Nov-16 16:04N 30°47' W 116°59'121.1
2017-Nov-16 16:00N 30°48' W 116°59'1020.7
2017-Nov-16 15:31N 30°58' W 117°03'1020.8
2017-Nov-16 15:01N 31°08' W 117°08'1421.0
2017-Nov-16 14:21N 31°21' W 117°14'1121.4
2017-Nov-16 13:50N 31°31' W 117°18'721.1
2017-Nov-16 13:30N 31°38' W 117°20'1121.1
2017-Nov-16 12:59N 31°48' W 117°25'1021.1
2017-Nov-16 12:30N 31°57' W 117°30'1020.9
2017-Nov-16 12:01N 32°07' W 117°35'1020.5
2017-Nov-16 11:30N 32°16' W 117°39'1019.8
2017-Nov-16 11:01N 32°25' W 117°43'918.0
2017-Nov-16 10:31N 32°34' W 117°47'917.7
2017-Nov-16 10:01N 32°42' W 117°51'918.5
2017-Nov-16 09:30N 32°50' W 117°56'1020.4
2017-Nov-16 09:01N 32°60' W 118°01'1020.3
2017-Nov-16 08:31N 33°10' W 118°02'1019.8
2017-Nov-16 08:01N 33°19' W 118°06'918.6
2017-Nov-16 07:30N 33°28' W 118°10'815.2
2017-Nov-16 07:00N 33°35' W 118°13'510.6
2017-Nov-16 06:29N 33°40' W 118°11'4 7.5
2017-Nov-16 06:00N 33°44' W 118°13'1 0.3
2017-Nov-16 04:07N 33°44' W 118°14'0 0.0
2017-Nov-16 03:55N 33°44' W 118°14'0 0.0
2017-Nov-16 03:25N 33°44' W 118°14'0 0.1
2017-Nov-16 02:58N 33°44' W 118°14'0 0.0
2017-Nov-16 00:19N 33°44' W 118°14'0 0.0
2017-Nov-15 23:55N 33°44' W 118°14'0 0.0
2017-Nov-15 23:19N 33°44' W 118°14'0 0.1
2017-Nov-15 22:58N 33°44' W 118°14'0 0.0
2017-Nov-15 22:25N 33°44' W 118°14'0 0.0
2017-Nov-15 21:55N 33°44' W 118°14'0 0.1
2017-Nov-15 21:25N 33°44' W 118°14'0 0.1
2017-Nov-15 20:58N 33°44' W 118°14'0 0.0
2017-Nov-15 20:28N 33°44' W 118°14'0 0.2
2017-Nov-15 19:42N 33°44' W 118°14'1 3.5
2017-Nov-15 19:30N 33°44' W 118°13'4 7.8
2017-Nov-15 19:00N 33°40' W 118°11'4 8.7
2017-Nov-15 18:30N 33°37' W 118°15'611.0
2017-Nov-15 18:00N 33°36' W 118°21'713.8
2017-Nov-15 17:30N 33°40' W 118°28'713.7
2017-Nov-15 16:59N 33°43' W 118°36'713.5
2017-Nov-15 16:29N 33°47' W 118°43'713.3
2017-Nov-15 16:00N 33°50' W 118°50'713.2
2017-Nov-15 15:29N 33°53' W 118°57'613.3
2017-Nov-15 15:00N 33°56' W 119°04'713.5
2017-Nov-15 14:30N 34°00' W 119°11'612.8
2017-Nov-15 14:00N 34°06' W 119°14'3 4.9
2017-Nov-15 13:19N 34°09' W 119°12'0 0.0
2017-Nov-15 12:10N 34°09' W 119°12'0 0.1
2017-Nov-15 11:31N 34°09' W 119°12'0 1.0
2017-Nov-15 11:28N 34°09' W 119°12'0 0.0
2017-Nov-15 10:55N 34°09' W 119°12'0 0.0
2017-Nov-15 10:22N 34°09' W 119°12'0 0.0
2017-Nov-15 09:52N 34°09' W 119°12'0 0.0
2017-Nov-15 07:52N 34°09' W 119°12'0 0.0
2017-Nov-15 06:49N 34°09' W 119°12'0 0.1
2017-Nov-15 06:19N 34°09' W 119°12'0 0.0
2017-Nov-15 04:49N 34°09' W 119°12'0 0.0
2017-Nov-15 02:13N 34°09' W 119°12'0 0.0
2017-Nov-14 22:55N 34°09' W 119°12'0 0.0
2017-Nov-14 22:28N 34°09' W 119°12'0 0.0
2017-Nov-14 21:55N 34°09' W 119°12'0 0.0
2017-Nov-14 21:25N 34°09' W 119°12'0 0.0
2017-Nov-14 20:55N 34°09' W 119°12'0 0.0
2017-Nov-14 18:31N 34°09' W 119°12'0 0.0
2017-Nov-14 15:49N 34°09' W 119°12'0 0.0
2017-Nov-14 12:43N 34°09' W 119°12'0 0.0
2017-Nov-14 12:25N 34°09' W 119°12'0 0.0
2017-Nov-14 11:16N 34°09' W 119°12'0 0.0
2017-Nov-14 10:55N 34°09' W 119°12'0 0.0
2017-Nov-14 10:07N 34°09' W 119°12'0 0.0
2017-Nov-14 08:37N 34°09' W 119°12'0 0.0
2017-Nov-14 08:25N 34°09' W 119°12'0 0.0
2017-Nov-14 06:31N 34°09' W 119°12'0 0.0
2017-Nov-14 05:01N 34°09' W 119°12'0 0.0
2017-Nov-14 04:56N 34°09' W 119°12'0 0.0
2017-Nov-14 04:13N 34°09' W 119°12'0 0.0
2017-Nov-14 03:55N 34°09' W 119°12'0 0.0
2017-Nov-14 03:25N 34°09' W 119°12'0 0.0
2017-Nov-14 01:25N 34°09' W 119°12'0 0.0
2017-Nov-14 00:58N 34°09' W 119°12'0 0.0
2017-Nov-14 00:26N 34°09' W 119°12'0 0.0
2017-Nov-13 23:58N 34°09' W 119°12'0 0.0
2017-Nov-13 23:28N 34°09' W 119°12'0 0.0
2017-Nov-13 22:40N 34°09' W 119°12'0 0.0
2017-Nov-13 22:25N 34°09' W 119°12'2 0.1
2017-Nov-13 01:58N 34°07' W 119°14'5 9.6
2017-Nov-13 01:28N 34°03' W 119°13'510.2
2017-Nov-13 01:00N 33°58' W 119°11'815.3
2017-Nov-13 00:29N 33°52' W 119°05'918.7
2017-Nov-13 00:01N 33°44' W 118°59'918.7
2017-Nov-12 23:31N 33°37' W 118°53'918.5
2017-Nov-12 23:01N 33°29' W 118°46'918.5
2017-Nov-12 22:30N 33°22' W 118°40'918.6
2017-Nov-12 22:00N 33°14' W 118°33'918.4
2017-Nov-12 21:30N 33°07' W 118°26'918.6
2017-Nov-12 21:01N 32°60' W 118°20'918.5
2017-Nov-12 20:31N 32°52' W 118°13'918.2
2017-Nov-12 20:01N 32°45' W 118°07'918.5
2017-Nov-12 19:31N 32°38' W 117°60'918.7
2017-Nov-12 19:00N 32°30' W 117°54'1018.9
2017-Nov-12 18:30N 32°21' W 117°49'918.5
2017-Nov-12 18:00N 32°13' W 117°45'1018.2
2017-Nov-12 17:27N 32°03' W 117°40'818.0
2017-Nov-12 16:59N 31°56' W 117°36'917.7
2017-Nov-12 16:30N 31°48' W 117°33'817.0
2017-Nov-12 16:00N 31°40' W 117°29'815.8
2017-Nov-12 15:31N 31°33' W 117°25'917.5
2017-Nov-12 15:00N 31°25' W 117°21'917.9
2017-Nov-12 14:30N 31°16' W 117°17'1018.0
2017-Nov-12 13:57N 31°07' W 117°13'818.5
2017-Nov-12 13:30N 30°59' W 117°09'1217.8
2017-Nov-12 12:51N 30°49' W 117°04'411.1
2017-Nov-12 12:27N 30°45' W 117°02'916.2
2017-Nov-12 11:55N 30°37' W 116°58'3517.9
2017-Nov-12 09:58N 30°04' W 116°43'1017.9
2017-Nov-12 09:25N 29°55' W 116°38'818.4
2017-Nov-12 09:00N 29°48' W 116°35'918.3
2017-Nov-12 08:30N 29°40' W 116°31'2318.1
2017-Nov-12 07:15N 29°19' W 116°21'518.4
2017-Nov-12 06:58N 29°14' W 116°18'1618.2
2017-Nov-12 06:04N 28°59' W 116°11'118.2
2017-Nov-12 06:00N 28°58' W 116°11'917.8
2017-Nov-12 05:30N 28°50' W 116°07'7717.5
2017-Nov-12 01:06N 27°42' W 115°24'217.4
2017-Nov-12 01:00N 27°41' W 115°23'1318.0
2017-Nov-12 00:15N 27°30' W 115°14'717.7
2017-Nov-11 23:52N 27°24' W 115°10'  

Dump ship's entire track history